Time;durP1;ratioP1;P1;durP2;ratioP2;P2;SDS_P1;SDS_P2;PMS_P1;PMS_P2;Temp;Humidity;BMP_temperature;BMP_pressure;BME280_temperature;BME280_humidity;BME280_pressure;Samples;Min_cycle;Max_cycle;Signal;HPM_P1;HPM_P2
2023/01/03 00:01:58;;;;;;;15.82;10.63;;;4.50;99.90;;;;;;5037343;28;20042;-81
2023/01/03 00:04:23;;;;;;;16.88;11.13;;;4.30;99.90;;;;;;5070079;28;20041;-81
2023/01/03 00:06:51;;;;;;;17.52;9.85;;;3.70;99.90;;;;;;5068815;28;20040;-81
2023/01/03 00:09:20;;;;;;;19.10;10.70;;;3.60;99.90;;;;;;5069220;28;20051;-81
2023/01/03 00:14:35;;;;;;;19.20;11.43;;;4.00;99.90;;;;;;5068237;28;20384;-81
2023/01/03 00:17:03;;;;;;;18.13;10.60;;;4.50;99.90;;;;;;5053863;28;20075;-81
2023/01/03 00:19:33;;;;;;;21.55;12.55;;;3.60;99.90;;;;;;5070307;28;20434;-81
2023/01/03 00:21:59;;;;;;;21.90;11.63;;;3.60;99.90;;;;;;5053514;28;20040;-81
2023/01/03 00:24:24;;;;;;;19.55;10.65;;;3.60;99.90;;;;;;5050321;28;20037;-81
2023/01/03 00:26:50;;;;;;;17.95;11.25;;;4.20;99.90;;;;;;5053247;28;20114;-81
2023/01/03 00:29:16;;;;;;;17.98;11.45;;;3.60;99.90;;;;;;5053170;28;20045;-81
2023/01/03 00:31:42;;;;;;;20.88;11.93;;;3.60;99.90;;;;;;5068293;28;20036;-81
2023/01/03 00:34:08;;;;;;;16.77;11.23;;;4.20;99.90;;;;;;5069476;28;20287;-81
2023/01/03 00:36:35;;;;;;;18.10;11.57;;;3.60;99.90;;;;;;5053286;28;20048;-81
2023/01/03 00:39:00;;;;;;;19.08;11.63;;;3.60;99.90;;;;;;5068331;28;20119;-81
2023/01/03 00:41:26;;;;;;;22.17;12.60;;;3.50;99.90;;;;;;5069372;28;20175;-81
2023/01/03 00:43:52;;;;;;;19.02;12.07;;;4.50;99.90;;;;;;5036209;28;20044;-81
2023/01/03 00:46:19;;;;;;;19.83;12.32;;;3.60;99.90;;;;;;5052853;28;20040;-81
2023/01/03 00:48:46;;;;;;;25.27;12.48;;;3.60;99.90;;;;;;5052681;28;20399;-81
2023/01/03 00:51:23;;;;;;;18.73;12.00;;;4.10;99.90;;;;;;5053165;28;20615;-81
2023/01/03 00:53:50;;;;;;;18.33;11.98;;;4.10;99.90;;;;;;5068832;28;20792;-81
2023/01/03 00:56:19;;;;;;;20.75;12.30;;;3.90;99.90;;;;;;5052559;28;20040;-81
2023/01/03 00:58:46;;;;;;;24.13;12.95;;;4.60;99.90;;;;;;5052325;28;20076;-81
2023/01/03 01:01:15;;;;;;;20.75;12.23;;;3.80;99.90;;;;;;5052976;28;20454;-81
2023/01/03 01:03:47;;;;;;;19.85;12.15;;;4.00;99.90;;;;;;5069286;28;20048;-81
2023/01/03 01:06:28;;;;;;;23.73;12.48;;;3.40;99.90;;;;;;5051564;28;20044;-81
2023/01/03 01:08:55;;;;;;;22.60;12.05;;;3.40;99.90;;;;;;5052506;28;20432;-81
2023/01/03 01:11:22;;;;;;;23.60;14.07;;;4.20;99.90;;;;;;5052479;28;20053;-81
2023/01/03 01:13:49;;;;;;;25.73;13.20;;;3.40;99.90;;;;;;5052461;28;20040;-81
2023/01/03 01:16:17;;;;;;;25.65;13.82;;;3.40;99.90;;;;;;5051972;28;20055;-81
2023/01/03 01:18:45;;;;;;;23.75;14.50;;;3.40;99.90;;;;;;5052594;28;20400;-81
2023/01/03 01:21:16;;;;;;;26.52;13.65;;;4.20;99.90;;;;;;5047009;28;20040;-81
2023/01/03 01:23:43;;;;;;;23.92;14.52;;;3.40;99.90;;;;;;5050250;28;20072;-81
2023/01/03 01:26:12;;;;;;;24.35;14.75;;;3.80;99.90;;;;;;5067128;28;20120;-81
2023/01/03 01:28:38;;;;;;;25.55;15.93;;;3.30;99.90;;;;;;5051564;28;20040;-81
2023/01/03 01:31:05;;;;;;;26.08;15.68;;;4.60;99.90;;;;;;5067610;28;20492;-81
2023/01/03 01:33:33;;;;;;;27.02;15.40;;;3.30;99.90;;;;;;5067953;28;20032;-81
2023/01/03 01:36:09;;;;;;;29.65;15.88;;;4.10;99.90;;;;;;5050976;28;20025;-81
2023/01/03 01:38:35;;;;;;;25.15;15.18;;;3.30;99.90;;;;;;5068352;28;20052;-81
2023/01/03 01:41:01;;;;;;;29.05;15.60;;;3.60;99.90;;;;;;5068570;28;20056;-81
2023/01/03 01:46:20;;;;;;;33.00;17.23;;;3.60;99.90;;;;;;5068321;28;20131;-81
2023/01/03 01:48:48;;;;;;;30.70;16.08;;;3.30;99.90;;;;;;5051290;28;20126;-81
2023/01/03 01:51:14;;;;;;;26.50;15.82;;;3.70;99.90;;;;;;5068378;28;20049;-81
2023/01/03 01:53:41;;;;;;;36.17;18.40;;;4.20;99.90;;;;;;5067859;28;20040;-81
2023/01/03 01:56:13;;;;;;;30.00;17.38;;;3.60;99.90;;;;;;5051512;28;20040;-81
2023/01/03 01:58:42;;;;;;;35.45;18.58;;;3.30;99.90;;;;;;5067996;28;20032;-81
2023/01/03 02:01:12;;;;;;;30.20;17.38;;;3.20;99.90;;;;;;5068403;28;20048;-81
2023/01/03 02:03:39;;;;;;;32.53;19.40;;;4.40;99.90;;;;;;5043380;28;20036;-81
2023/01/03 02:06:08;;;;;;;31.05;18.33;;;3.60;99.90;;;;;;5043969;28;20036;-81
2023/01/03 02:08:34;;;;;;;35.40;19.40;;;3.20;99.90;;;;;;5051059;28;20090;-81
2023/01/03 02:11:31;;;;;;;33.45;19.60;;;4.50;99.90;;;;;;5051822;28;20052;-81
2023/01/03 02:14:28;;;;;;;36.70;18.45;;;3.20;99.90;;;;;;5066992;28;20040;-81
2023/01/03 02:16:57;;;;;;;32.60;19.42;;;3.20;99.90;;;;;;5049160;28;20032;-81
2023/01/03 02:19:54;;;;;;;37.00;21.13;;;3.20;99.90;;;;;;5066542;28;20055;-81
2023/01/03 02:22:40;;;;;;;39.50;21.20;;;3.20;99.90;;;;;;5067172;28;20040;-81
2023/01/03 02:25:06;;;;;;;34.13;19.70;;;3.20;99.90;;;;;;5066632;28;20123;-81
2023/01/03 02:27:40;;;;;;;37.58;21.73;;;4.70;99.90;;;;;;5068198;28;20123;-81
2023/01/03 02:30:09;;;;;;;39.03;20.88;;;3.20;99.90;;;;;;5051179;28;20473;-81
2023/01/03 02:32:38;;;;;;;37.75;22.17;;;3.20;99.90;;;;;;5066165;28;20045;-81
2023/01/03 02:35:24;;;;;;;41.40;22.23;;;3.50;99.90;;;;;;5067578;28;20097;-81
2023/01/03 02:38:25;;;;;;;43.72;22.02;;;3.10;99.90;;;;;;5041411;28;20047;-81
2023/01/03 02:41:08;;;;;;;43.55;21.30;;;3.10;99.90;;;;;;5067452;28;20060;-81
2023/01/03 02:43:55;;;;;;;36.67;20.17;;;3.10;99.90;;;;;;5051267;28;20454;-82
2023/01/03 02:46:40;;;;;;;41.17;20.48;;;3.10;99.90;;;;;;5052172;28;20036;-81
2023/01/03 02:49:14;;;;;;;37.65;20.08;;;3.40;99.90;;;;;;5070618;28;20043;-81
2023/01/03 02:51:48;;;;;;;42.65;21.02;;;3.10;99.90;;;;;;5045244;28;20068;-82
2023/01/03 02:55:01;;;;;;;35.67;19.65;;;3.10;99.90;;;;;;5071997;28;20395;-81
2023/01/03 02:57:39;;;;;;;35.17;19.83;;;3.00;99.90;;;;;;5053424;28;20041;-82
2023/01/03 03:00:10;;;;;;;38.25;20.42;;;3.00;99.90;;;;;;5062976;28;20040;-82
2023/01/03 03:02:37;;;;;;;38.13;18.88;;;3.00;99.90;;;;;;5052888;28;20032;-82
2023/01/03 03:05:07;;;;;;;32.20;18.23;;;4.40;99.90;;;;;;5054576;28;20055;-81
2023/01/03 03:07:39;;;;;;;34.47;19.15;;;3.00;99.90;;;;;;5053240;28;20059;-82
2023/01/03 03:13:14;;;;;;;34.17;20.38;;;2.90;99.90;;;;;;5071173;28;20060;-81
2023/01/03 03:16:10;;;;;;;33.88;20.13;;;2.90;99.90;;;;;;5070484;28;20041;-81
2023/01/03 03:18:53;;;;;;;34.83;20.27;;;2.90;99.90;;;;;;5051413;28;20037;-81
2023/01/03 03:28:33;;;;;;;32.05;19.23;;;4.10;99.90;;;;;;5069368;28;20044;-81
2023/01/03 03:29:48;;;;;;;33.30;19.75;;;2.70;99.90;;;;;;5056972;28;20114;-82
2023/01/03 03:32:14;;;;;;;31.90;19.10;;;3.00;99.90;;;;;;5068948;28;20052;-81
2023/01/03 03:34:43;;;;;;;37.63;19.27;;;2.70;99.90;;;;;;5037847;28;20094;-81
2023/01/03 03:37:21;;;;;;;34.60;18.95;;;2.70;99.90;;;;;;5054699;28;20427;-81
2023/01/03 03:45:28;;;;;;;31.95;18.10;;;3.20;99.90;;;;;;5067552;28;20079;-82
2023/01/03 03:48:11;;;;;;;31.13;19.13;;;2.60;99.90;;;;;;5069769;28;20044;-81
2023/01/03 03:50:39;;;;;;;36.15;18.45;;;2.50;99.90;;;;;;5052381;28;20400;-81
2023/01/03 03:53:08;;;;;;;31.05;18.85;;;3.60;99.90;;;;;;5068663;28;20093;-81
2023/01/03 03:56:14;;;;;;;32.10;17.85;;;2.50;99.90;;;;;;5069348;28;20036;-81
2023/01/03 03:58:42;;;;;;;32.55;18.95;;;2.50;99.90;;;;;;5068130;28;20037;-81
2023/01/03 04:01:12;;;;;;;30.27;18.08;;;3.40;99.90;;;;;;5053038;28;20141;-81
2023/01/03 04:03:41;;;;;;;34.30;17.55;;;2.50;99.90;;;;;;5066702;28;20041;-81
2023/01/03 04:06:29;;;;;;;37.45;19.25;;;2.50;99.90;;;;;;5069046;28;20052;-81
2023/01/03 04:08:55;;;;;;;32.42;19.58;;;2.50;99.90;;;;;;5069285;28;20048;-81
2023/01/03 04:11:21;;;;;;;37.15;18.98;;;2.40;99.90;;;;;;5052718;28;20044;-81
2023/01/03 04:13:47;;;;;;;32.45;18.73;;;2.90;99.90;;;;;;5034584;28;20485;-81
2023/01/03 04:16:13;;;;;;;33.88;18.85;;;2.40;99.90;;;;;;5034598;28;20434;-81
2023/01/03 04:18:38;;;;;;;35.95;18.65;;;3.40;99.90;;;;;;5051155;28;20560;-81
2023/01/03 04:21:04;;;;;;;33.55;18.95;;;2.40;99.90;;;;;;5036310;28;20048;-81
2023/01/03 04:23:30;;;;;;;37.30;19.20;;;2.30;99.90;;;;;;5050509;28;20723;-81
2023/01/03 04:25:55;;;;;;;37.45;20.10;;;2.30;99.90;;;;;;5036503;28;20484;-81
2023/01/03 04:28:21;;;;;;;35.92;19.85;;;2.50;99.90;;;;;;5064651;28;20040;-81
2023/01/03 04:30:47;;;;;;;35.15;20.42;;;3.10;99.90;;;;;;5068360;28;20066;-81
2023/01/03 04:33:13;;;;;;;33.97;19.75;;;3.70;99.90;;;;;;5034658;28;20036;-81
2023/01/03 04:35:38;;;;;;;39.03;20.27;;;2.20;99.90;;;;;;5068154;28;20105;-81
2023/01/03 04:38:04;;;;;;;35.80;18.77;;;2.30;99.90;;;;;;5050724;28;20044;-81
2023/01/03 04:40:32;;;;;;;36.35;19.92;;;3.40;99.90;;;;;;5057854;28;20098;-82
2023/01/03 04:45:42;;;;;;;34.58;20.33;;;2.30;99.90;;;;;;5027685;28;20075;-81
2023/01/03 04:48:07;;;;;;;33.53;19.00;;;2.50;99.90;;;;;;5047253;28;20081;-81
2023/01/03 04:50:33;;;;;;;35.33;19.70;;;2.20;99.90;;;;;;5047617;28;20033;-81
2023/01/03 04:52:59;;;;;;;36.58;19.77;;;2.20;99.90;;;;;;5020809;28;20045;-81
2023/01/03 04:55:24;;;;;;;36.40;19.90;;;2.20;99.90;;;;;;5041582;28;20055;-81
2023/01/03 04:57:51;;;;;;;37.85;20.58;;;2.20;99.90;;;;;;5045372;28;20041;-81
2023/01/03 05:00:17;;;;;;;42.00;19.60;;;2.20;99.90;;;;;;5041675;28;20036;-81
2023/01/03 05:02:43;;;;;;;36.95;19.55;;;2.20;99.90;;;;;;5049667;28;20057;-81
2023/01/03 05:05:08;;;;;;;31.50;19.20;;;2.80;99.90;;;;;;5048444;28;20040;-81
2023/01/03 05:07:34;;;;;;;33.97;19.40;;;2.10;99.90;;;;;;5047053;28;20061;-81
2023/01/03 05:10:00;;;;;;;35.30;20.08;;;2.40;99.90;;;;;;5026689;28;20475;-81
2023/01/03 05:12:26;;;;;;;36.58;18.88;;;2.10;99.90;;;;;;5018682;28;20472;-81
2023/01/03 05:14:52;;;;;;;34.08;20.00;;;2.10;99.90;;;;;;5037672;28;20037;-81
2023/01/03 05:17:20;;;;;;;32.70;20.17;;;2.50;99.90;;;;;;5034535;28;20033;-81
2023/01/03 05:28:01;;;;;;;35.70;21.27;;;2.00;99.90;;;;;;5043549;28;20049;-81
2023/01/03 05:30:26;;;;;;;35.50;21.05;;;2.60;99.90;;;;;;5045633;28;20508;-81
2023/01/03 05:32:52;;;;;;;32.30;19.70;;;2.00;99.90;;;;;;5038486;28;20044;-81
2023/01/03 05:35:18;;;;;;;32.22;18.90;;;2.70;99.90;;;;;;5028925;28;20123;-81
2023/01/03 05:37:44;;;;;;;31.52;20.98;;;3.60;99.90;;;;;;5030721;28;20040;-81
2023/01/03 05:40:10;;;;;;;34.67;20.38;;;1.90;99.90;;;;;;5038445;28;20076;-81
2023/01/03 05:42:36;;;;;;;31.73;19.48;;;1.90;99.90;;;;;;5032616;28;20463;-81
2023/01/03 05:45:02;;;;;;;31.98;20.00;;;2.30;99.90;;;;;;5051554;28;20044;-81
2023/01/03 05:47:27;;;;;;;35.38;21.73;;;1.90;99.90;;;;;;5068780;28;20045;-81
2023/01/03 05:49:53;;;;;;;34.58;21.88;;;1.90;99.90;;;;;;5053181;28;20404;-81
2023/01/03 05:52:19;;;;;;;32.33;19.77;;;3.50;99.90;;;;;;5068300;28;20400;-82
2023/01/03 05:54:45;;;;;;;32.70;20.38;;;3.20;99.90;;;;;;5052681;28;20137;-82
2023/01/03 05:57:10;;;;;;;34.70;21.20;;;2.60;99.90;;;;;;5027232;28;20033;-82
2023/01/03 05:59:36;;;;;;;32.38;21.27;;;1.80;99.90;;;;;;5069990;28;20505;-82
2023/01/03 06:02:01;;;;;;;33.97;22.08;;;2.40;99.90;;;;;;5070528;28;20397;-81
2023/01/03 06:04:27;;;;;;;32.15;20.02;;;1.90;99.90;;;;;;5052683;28;20091;-81
2023/01/03 06:06:53;;;;;;;37.25;22.33;;;1.80;99.90;;;;;;5054380;28;20040;-81
2023/01/03 06:09:18;;;;;;;33.67;21.52;;;3.80;99.90;;;;;;5071977;28;20056;-81
2023/01/03 06:11:44;;;;;;;37.55;22.33;;;3.60;99.90;;;;;;5050377;28;20091;-81
2023/01/03 06:14:10;;;;;;;39.17;23.80;;;1.90;99.90;;;;;;5035906;28;20115;-81
2023/01/03 06:19:20;;;;;;;39.75;24.05;;;3.60;99.90;;;;;;5057053;28;20128;-81
2023/01/03 06:21:46;;;;;;;35.50;21.55;;;1.90;99.90;;;;;;5068993;28;20115;-81
2023/01/03 06:24:11;;;;;;;178.63;27.02;;;3.40;99.90;;;;;;5062907;28;20040;-81
2023/01/03 06:26:37;;;;;;;98.82;22.85;;;1.90;99.90;;;;;;5053062;28;20504;-81
2023/01/03 06:29:04;;;;;;;47.00;17.58;;;1.80;99.90;;;;;;5060512;28;20036;-81
2023/01/03 06:31:29;;;;;;;211.00;29.50;;;1.80;99.90;;;;;;5054579;28;20037;-81
2023/01/03 06:33:55;;;;;;;48.95;15.70;;;3.40;99.90;;;;;;5034657;28;20595;-81
2023/01/03 06:36:22;;;;;;;114.57;19.90;;;2.60;99.90;;;;;;5026218;28;20468;-81
2023/01/03 06:38:48;;;;;;;288.45;37.75;;;2.60;99.90;;;;;;5043501;28;20105;-81
2023/01/03 06:41:15;;;;;;;144.05;19.77;;;1.60;99.90;;;;;;5049167;28;20488;-81
2023/01/03 06:43:41;;;;;;;97.00;18.45;;;3.20;99.90;;;;;;5067687;28;20051;-81
2023/01/03 06:54:25;;;;;;;117.57;18.92;;;1.50;99.90;;;;;;5061587;28;20389;-82
2023/01/03 06:56:52;;;;;;;135.13;17.38;;;1.50;99.90;;;;;;5044583;28;20435;-82
2023/01/03 06:59:18;;;;;;;189.48;29.27;;;1.50;99.90;;;;;;5070247;28;20045;-81
2023/01/03 07:01:45;;;;;;;125.15;17.45;;;2.10;99.90;;;;;;5066592;28;20122;-81
2023/01/03 07:04:11;;;;;;;152.70;21.92;;;1.60;99.90;;;;;;5067122;28;20045;-81
2023/01/03 07:06:38;;;;;;;141.90;21.95;;;2.60;99.90;;;;;;5046939;28;20044;-82
2023/01/03 07:09:04;;;;;;;111.45;21.60;;;2.20;99.90;;;;;;5066665;28;20124;-82
2023/01/03 07:11:30;;;;;;;213.45;29.77;;;2.50;99.90;;;;;;5039147;28;20050;-82
2023/01/03 07:13:59;;;;;;;159.25;23.83;;;1.80;99.90;;;;;;5048955;28;20037;-82
2023/01/03 07:16:37;;;;;;;231.40;29.73;;;1.90;99.90;;;;;;5070462;28;20052;-82
2023/01/03 07:19:04;;;;;;;315.85;38.08;;;2.90;99.90;;;;;;5055768;28;20052;-82
2023/01/03 07:21:32;;;;;;;160.40;21.60;;;2.00;99.90;;;;;;5067221;28;20124;-82
2023/01/03 07:24:00;;;;;;;202.73;29.83;;;2.10;99.90;;;;;;5047386;28;20044;-82
2023/01/03 07:26:29;;;;;;;246.90;33.65;;;2.50;99.90;;;;;;5050445;28;20127;-82
2023/01/03 07:28:55;;;;;;;203.13;23.55;;;2.90;99.90;;;;;;5050250;28;20036;-82
2023/01/03 07:31:21;;;;;;;217.02;34.40;;;2.30;99.90;;;;;;5052380;28;20047;-82
2023/01/03 07:33:46;;;;;;;252.80;31.23;;;2.60;99.90;;;;;;5055394;28;20633;-82
2023/01/03 07:36:14;;;;;;;286.38;33.92;;;2.40;99.90;;;;;;5061264;28;20029;-81
2023/01/03 07:38:41;;;;;;;263.83;37.08;;;2.50;99.90;;;;;;5072573;28;20039;-81
2023/01/03 07:41:07;;;;;;;243.07;35.53;;;2.60;99.90;;;;;;5054610;28;20044;-88
2023/01/03 07:43:44;;;;;;;134.05;30.42;;;2.60;99.90;;;;;;5037311;28;20103;-88
2023/01/03 07:46:23;;;;;;;95.72;27.27;;;2.70;99.90;;;;;;5063203;28;20041;-87
2023/01/03 07:48:56;;;;;;;155.30;31.65;;;3.80;99.90;;;;;;5047353;28;20033;-87
2023/01/03 07:51:21;;;;;;;106.18;29.73;;;4.30;99.90;;;;;;5065702;28;20045;-87
2023/01/03 07:53:52;;;;;;;108.60;28.80;;;3.70;99.90;;;;;;5061793;28;20598;-87
2023/01/03 07:56:18;;;;;;;89.38;29.25;;;4.30;99.90;;;;;;5071690;28;20473;-87
2023/01/03 07:58:45;;;;;;;98.57;32.10;;;3.00;99.90;;;;;;5039281;28;20110;-88
2023/01/03 08:01:20;;;;;;;95.10;31.67;;;3.10;99.90;;;;;;5054572;28;20029;-89
2023/01/03 08:03:46;;;;;;;101.13;32.93;;;3.10;99.90;;;;;;5057046;28;20040;-88
2023/01/03 08:06:21;;;;;;;104.07;33.33;;;3.60;99.90;;;;;;5057643;28;20289;-88
2023/01/03 08:13:16;;;;;;;99.60;33.90;;;3.20;99.90;;;;;;5055906;28;20060;-88
2023/01/03 08:14:17;;;;;;;95.68;35.45;;;3.70;99.90;;;;;;5037920;28;20124;-86
2023/01/03 08:16:43;;;;;;;95.28;32.38;;;3.50;99.90;;;;;;5053142;28;20123;-88
2023/01/03 08:19:08;;;;;;;79.88;31.50;;;3.40;99.90;;;;;;5062965;28;20089;-88
2023/01/03 08:21:34;;;;;;;94.85;32.58;;;3.50;99.90;;;;;;5039580;28;20044;-87
2023/01/03 08:24:00;;;;;;;97.88;34.45;;;3.60;99.90;;;;;;5018389;28;20037;-87
2023/01/03 08:26:25;;;;;;;89.75;33.88;;;4.20;99.90;;;;;;5057143;28;20115;-87
2023/01/03 08:28:51;;;;;;;84.32;32.72;;;4.10;99.90;;;;;;5022753;28;20476;-92
2023/01/03 08:31:20;;;;;;;90.35;34.65;;;4.50;99.90;;;;;;5038632;28;20369;-89
2023/01/03 08:33:50;;;;;;;75.68;33.03;;;3.90;99.90;;;;;;5047955;28;20052;-90
2023/01/03 08:36:17;;;;;;;86.68;35.90;;;3.90;99.90;;;;;;5051487;28;20039;-89
2023/01/03 08:38:47;;;;;;;95.10;37.05;;;4.30;99.90;;;;;;5039398;28;20028;-89
2023/01/03 08:41:17;;;;;;;83.70;36.30;;;3.90;99.90;;;;;;5054492;28;20055;-90
2023/01/03 08:43:45;;;;;;;82.82;33.55;;;4.10;99.90;;;;;;5052537;28;20485;-90
2023/01/03 08:46:12;;;;;;;92.97;37.85;;;4.60;99.90;;;;;;5050401;28;20055;-88
2023/01/03 08:48:39;;;;;;;87.45;37.70;;;4.90;99.90;;;;;;5054069;28;20029;-89
2023/01/03 08:51:05;;;;;;;92.72;37.00;;;4.10;99.90;;;;;;5057441;28;20072;-88
2023/01/03 08:53:31;;;;;;;80.00;31.70;;;4.10;99.90;;;;;;5056914;28;20380;-86
2023/01/03 08:55:57;;;;;;;91.40;36.60;;;4.10;99.90;;;;;;5056712;28;20028;-88
2023/01/03 08:58:22;;;;;;;86.40;36.83;;;4.90;99.90;;;;;;5023381;28;20503;-86
2023/01/03 09:00:48;;;;;;;100.50;40.70;;;5.70;99.90;;;;;;5056678;28;20040;-86
2023/01/03 09:03:14;;;;;;;75.35;34.20;;;4.20;99.90;;;;;;5056973;28;20119;-86
2023/01/03 09:05:39;;;;;;;105.25;41.42;;;4.20;99.90;;;;;;5055038;28;20102;-86
2023/01/03 09:08:05;;;;;;;101.35;40.42;;;4.20;99.90;;;;;;5069918;28;20127;-86
2023/01/03 09:10:31;;;;;;;84.38;36.65;;;4.90;99.90;;;;;;5043738;28;20093;-86
2023/01/03 09:12:57;;;;;;;90.28;38.08;;;4.50;99.90;;;;;;5072565;28;20075;-86
2023/01/03 09:15:23;;;;;;;71.95;31.73;;;4.30;99.90;;;;;;5038019;28;20045;-87
2023/01/03 09:17:49;;;;;;;97.22;41.97;;;4.30;99.90;;;;;;5018419;28;20037;-87
2023/01/03 09:20:16;;;;;;;95.50;38.28;;;5.20;99.90;;;;;;5038322;28;20028;-86
2023/01/03 09:22:42;;;;;;;91.82;40.25;;;6.00;99.90;;;;;;5070441;28;20123;-87
2023/01/03 09:25:09;;;;;;;102.35;42.55;;;4.70;99.90;;;;;;5053404;28;20080;-87
2023/01/03 09:27:35;;;;;;;69.53;30.63;;;5.20;99.90;;;;;;5072939;28;20048;-86
2023/01/03 09:30:01;;;;;;;102.40;42.13;;;4.40;99.90;;;;;;5037369;28;20040;-86
2023/01/03 09:32:26;;;;;;;103.43;41.95;;;4.60;99.90;;;;;;5069323;28;20455;-86
2023/01/03 09:34:52;;;;;;;99.18;42.05;;;6.10;99.90;;;;;;5051217;28;20037;-87
2023/01/03 09:37:18;;;;;;;93.43;38.80;;;4.50;99.90;;;;;;5047068;28;20041;-87
2023/01/03 09:39:44;;;;;;;107.25;43.08;;;4.90;99.90;;;;;;5050974;28;20096;-85
2023/01/03 09:45:20;;;;;;;80.03;35.45;;;4.60;99.90;;;;;;5063649;28;20094;-86
2023/01/03 09:47:46;;;;;;;97.43;41.35;;;4.80;99.90;;;;;;5053283;28;20046;-84
2023/01/03 09:50:25;;;;;;;99.15;40.45;;;5.10;99.90;;;;;;5034548;28;20033;-85
2023/01/03 10:04:27;;;;;;;71.32;34.97;;;5.00;99.90;;;;;;5066293;28;20041;-85
2023/01/03 10:07:19;;;;;;;74.55;33.20;;;5.20;99.90;;;;;;5045418;28;20036;-85
2023/01/03 10:09:50;;;;;;;87.93;38.35;;;5.20;99.90;;;;;;5053551;28;20051;-84
2023/01/03 10:12:41;;;;;;;79.32;34.30;;;5.50;99.90;;;;;;5050406;28;20078;-86
2023/01/03 10:15:28;;;;;;;81.68;37.10;;;5.30;99.90;;;;;;5045381;28;20036;-85
2023/01/03 10:18:13;;;;;;;60.53;29.50;;;5.50;99.90;;;;;;5066621;28;20464;-87
2023/01/03 10:20:38;;;;;;;63.13;31.38;;;5.50;99.90;;;;;;5054708;28;20036;-86
2023/01/03 10:23:06;;;;;;;65.88;32.58;;;5.50;99.90;;;;;;5053023;28;20742;-85
2023/01/03 10:25:32;;;;;;;55.15;29.70;;;5.50;99.90;;;;;;5071304;28;20067;-87
2023/01/03 10:28:05;;;;;;;56.60;31.13;;;5.30;99.90;;;;;;5035635;28;20072;-86
2023/01/03 10:31:08;;;;;;;55.83;30.15;;;5.50;99.90;;;;;;5046082;28;20037;-86
2023/01/03 10:33:40;;;;;;;48.33;26.42;;;5.50;99.90;;;;;;5052890;28;20056;-88
2023/01/03 10:36:07;;;;;;;43.45;25.88;;;5.90;99.90;;;;;;5057973;28;20041;-85
2023/01/03 10:38:33;;;;;;;38.17;22.48;;;5.60;99.90;;;;;;5045382;28;20386;-86
2023/01/03 10:41:02;;;;;;;38.67;21.85;;;5.60;99.90;;;;;;5018876;28;20142;-85
2023/01/03 10:43:31;;;;;;;33.95;19.90;;;5.60;99.90;;;;;;5051820;28;20091;-85
2023/01/03 10:46:12;;;;;;;35.40;18.95;;;6.70;99.90;;;;;;5053463;28;20044;-85
2023/01/03 10:48:49;;;;;;;35.15;20.02;;;5.70;99.90;;;;;;5045199;28;20053;-85
2023/01/03 10:51:26;;;;;;;43.45;23.65;;;6.20;99.90;;;;;;5056172;28;20047;-85
2023/01/03 10:53:54;;;;;;;41.47;21.98;;;5.80;99.90;;;;;;5060433;28;20052;-85
2023/01/03 10:56:21;;;;;;;37.55;21.48;;;6.30;99.90;;;;;;5052428;28;20032;-85
2023/01/03 10:58:46;;;;;;;36.88;20.30;;;5.80;99.90;;;;;;5052619;28;20445;-85
2023/01/03 11:01:21;;;;;;;35.33;19.55;;;6.30;99.90;;;;;;5046566;28;20069;-86
2023/01/03 11:04:10;;;;;;;35.30;20.58;;;5.80;99.90;;;;;;5068047;28;20401;-86
2023/01/03 11:06:36;;;;;;;40.33;22.70;;;5.90;99.90;;;;;;5041893;28;20033;-87
2023/01/03 11:09:08;;;;;;;35.80;20.27;;;5.90;99.90;;;;;;5031476;28;20040;-85
2023/01/03 11:11:39;;;;;;;31.48;19.15;;;6.70;99.90;;;;;;5052514;28;20128;-85
2023/01/03 11:14:08;;;;;;;37.13;22.77;;;5.80;99.90;;;;;;5054450;28;20046;-86
2023/01/03 11:16:34;;;;;;;32.40;18.75;;;6.20;99.90;;;;;;5047906;28;20101;-83
2023/01/03 11:19:05;;;;;;;39.65;23.23;;;7.00;99.90;;;;;;5068523;28;20033;-90
2023/01/03 11:21:53;;;;;;;33.83;21.83;;;6.00;99.90;;;;;;5057841;28;20033;-90
2023/01/03 11:24:32;;;;;;;24.88;15.60;;;6.00;99.90;;;;;;5058545;28;20066;-90
2023/01/03 11:27:18;;;;;;;40.05;20.67;;;6.00;99.90;;;;;;5045115;28;20095;-89
2023/01/03 11:30:01;;;;;;;33.45;19.35;;;7.10;99.90;;;;;;5039347;28;20099;-89
2023/01/03 11:32:38;;;;;;;39.75;22.25;;;6.00;99.90;;;;;;5053420;28;20048;-89
2023/01/03 11:35:29;;;;;;;38.10;20.98;;;6.10;99.90;;;;;;5050107;28;20048;-89
2023/01/03 11:38:12;;;;;;;34.63;21.13;;;6.10;99.90;;;;;;5049873;28;20156;-90
2023/01/03 11:41:05;;;;;;;44.35;19.98;;;6.10;99.90;;;;;;5053252;28;20052;-90
2023/01/03 11:43:34;;;;;;;37.83;20.77;;;6.10;99.90;;;;;;5067695;28;20040;-90
2023/01/03 11:46:33;;;;;;;42.10;21.48;;;6.20;99.90;;;;;;5049887;28;20040;-90
2023/01/03 11:49:06;;;;;;;33.08;19.60;;;6.20;99.90;;;;;;5072307;28;20032;-90
2023/01/03 11:51:52;;;;;;;34.55;19.63;;;6.20;99.90;;;;;;5051691;28;20048;-89
2023/01/03 11:54:30;;;;;;;38.90;18.75;;;6.20;99.90;;;;;;5050957;28;20109;-87
2023/01/03 11:57:05;;;;;;;44.15;21.65;;;6.20;99.90;;;;;;5058201;28;20076;-88
2023/01/03 11:59:37;;;;;;;39.42;19.85;;;6.20;99.90;;;;;;5056907;28;20043;-87
2023/01/03 12:02:33;;;;;;;41.00;21.65;;;6.40;99.90;;;;;;5059670;28;20131;-88
2023/01/03 12:05:41;;;;;;;36.33;17.40;;;6.40;99.90;;;;;;5058572;28;20374;-88
2023/01/03 12:08:15;;;;;;;37.67;19.30;;;6.30;99.90;;;;;;5045189;28;20564;-88
2023/01/03 12:11:15;;;;;;;35.05;19.52;;;6.30;99.90;;;;;;5057357;28;20048;-87
2023/01/03 12:13:49;;;;;;;35.92;18.85;;;6.30;99.90;;;;;;5055284;28;20036;-87
2023/01/03 12:16:25;;;;;;;39.28;19.83;;;6.30;99.90;;;;;;5069818;28;20064;-87
2023/01/03 12:19:13;;;;;;;33.70;18.83;;;6.30;99.90;;;;;;5051501;28;20040;-86
2023/01/03 12:21:48;;;;;;;31.13;18.70;;;6.40;99.90;;;;;;5045499;28;20037;-87
2023/01/03 12:24:42;;;;;;;29.77;15.57;;;6.40;99.90;;;;;;5048517;28;20040;-87
2023/01/03 12:27:35;;;;;;;37.50;20.15;;;6.40;99.90;;;;;;5053089;28;20787;-87
2023/01/03 12:30:27;;;;;;;35.03;18.80;;;6.40;99.90;;;;;;5044053;28;20052;-87
2023/01/03 12:32:58;;;;;;;35.97;20.15;;;6.40;99.90;;;;;;5044506;28;20048;-88
2023/01/03 12:35:32;;;;;;;38.65;20.40;;;7.20;99.90;;;;;;5044279;28;20120;-88
2023/01/03 12:37:58;;;;;;;33.60;19.63;;;6.50;99.90;;;;;;5051062;28;20036;-87
2023/01/03 12:40:45;;;;;;;37.72;19.42;;;6.40;99.90;;;;;;5034460;28;20182;-88
2023/01/03 12:43:38;;;;;;;31.42;16.60;;;6.40;99.90;;;;;;5069620;28;20511;-87
2023/01/03 12:46:11;;;;;;;32.22;17.80;;;6.80;99.90;;;;;;5079528;28;20127;-87
2023/01/03 12:48:58;;;;;;;31.45;18.02;;;6.50;99.90;;;;;;5054159;28;20032;-87
2023/01/03 12:51:24;;;;;;;35.40;18.88;;;6.50;99.90;;;;;;5046536;28;20125;-87
2023/01/03 12:54:06;;;;;;;31.38;17.15;;;6.60;99.90;;;;;;5022176;28;20041;-87
2023/01/03 12:57:09;;;;;;;37.00;19.25;;;6.70;99.90;;;;;;5052586;28;20040;-86
2023/01/03 12:59:52;;;;;;;30.92;17.33;;;6.80;99.90;;;;;;5039712;28;20128;-86
2023/01/03 13:02:19;;;;;;;36.15;18.73;;;6.70;99.90;;;;;;5050410;28;20046;-86
2023/01/03 13:04:51;;;;;;;35.08;18.48;;;6.80;99.90;;;;;;5041936;28;20044;-86
2023/01/03 13:07:30;;;;;;;31.77;17.98;;;6.90;99.90;;;;;;5051961;28;20396;-86
2023/01/03 13:10:06;;;;;;;29.95;18.00;;;6.90;99.90;;;;;;5052684;28;20041;-86
2023/01/03 13:12:36;;;;;;;;;;;6.90;99.90;;;;;;5052253;28;20048;-86
2023/01/03 13:15:01;;;;;;;32.13;16.52;;;6.90;99.90;;;;;;5051725;28;19917;-87
2023/01/03 13:17:40;;;;;;;29.73;17.60;;;6.90;99.90;;;;;;5053153;28;20480;-87
2023/01/03 13:20:30;;;;;;;37.08;17.08;;;7.00;99.90;;;;;;5062731;28;20037;-87
2023/01/03 13:22:56;;;;;;;28.27;16.33;;;7.00;99.90;;;;;;5052655;28;20485;-87
2023/01/03 13:25:27;;;;;;;31.48;17.88;;;7.00;99.90;;;;;;5036518;28;20083;-87
2023/01/03 13:27:56;;;;;;;26.38;16.83;;;7.00;99.90;;;;;;5051105;28;20400;-87
2023/01/03 13:30:24;;;;;;;27.45;16.77;;;7.00;99.90;;;;;;5050702;28;20106;-87
2023/01/03 13:32:55;;;;;;;26.73;13.95;;;7.00;99.90;;;;;;5048063;28;20041;-87
2023/01/03 13:35:33;;;;;;;25.23;14.57;;;5.60;99.90;;;;;;5054063;28;20028;-87
2023/01/03 13:38:22;;;;;;;23.90;14.00;;;7.00;99.90;;;;;;5071350;28;20503;-88
2023/01/03 13:40:49;;;;;;;24.42;14.93;;;7.10;99.90;;;;;;5067341;28;20136;-87
2023/01/03 13:43:22;;;;;;;23.40;13.88;;;7.10;99.90;;;;;;5036720;28;20054;-87
2023/01/03 13:45:50;;;;;;;25.52;15.27;;;7.10;99.90;;;;;;5047593;28;20118;-87
2023/01/03 13:48:28;;;;;;;23.23;13.93;;;7.10;99.90;;;;;;5044802;28;20048;-87
2023/01/03 13:51:15;;;;;;;21.55;13.88;;;8.10;99.90;;;;;;5050880;28;20535;-87
2023/01/03 13:53:59;;;;;;;19.27;11.38;;;7.20;99.90;;;;;;5049676;28;20094;-87
2023/01/03 13:56:48;;;;;;;24.92;12.60;;;7.20;99.90;;;;;;5064416;28;20511;-87
2023/01/03 13:59:14;;;;;;;26.55;14.95;;;7.20;99.90;;;;;;5054424;28;20134;-87